Time;durP1;ratioP1;P1;durP2;ratioP2;P2;SDS_P1;SDS_P2;PMS_P1;PMS_P2;Temp;Humidity;BMP_temperature;BMP_pressure;BME280_temperature;BME280_humidity;BME280_pressure;Samples;Min_cycle;Max_cycle;Signal;HPM_P1;HPM_P2
2022/03/28 00:00:28;;;;;;;1.03;0.87;;;13.70;1.00;;;;;;5041931;28;20444;-68
2022/03/28 00:02:58;;;;;;;1.07;0.80;;;13.70;1.00;;;;;;5051682;28;20805;-66
2022/03/28 00:05:26;;;;;;;0.60;0.10;;;13.70;1.00;;;;;;5033413;28;20476;-67
2022/03/28 00:07:55;;;;;;;0.60;0.10;;;13.80;1.00;;;;;;5034450;28;20457;-68
2022/03/28 00:10:23;;;;;;;0.60;0.20;;;13.80;1.00;;;;;;5048894;28;20454;-67
2022/03/28 00:12:51;;;;;;;4.43;1.80;;;13.80;1.00;;;;;;5034588;28;20461;-67
2022/03/28 00:15:19;;;;;;;0.60;0.10;;;13.70;1.00;;;;;;5032900;28;20921;-68
2022/03/28 00:17:47;;;;;;;0.60;0.13;;;13.70;1.00;;;;;;5034619;28;20457;-67
2022/03/28 00:20:15;;;;;;;0.60;0.10;;;13.70;1.00;;;;;;5035424;28;20445;-67
2022/03/28 00:22:43;;;;;;;0.60;0.10;;;13.70;1.00;;;;;;5033466;28;20822;-68
2022/03/28 00:25:13;;;;;;;0.60;0.10;;;13.70;1.00;;;;;;5043261;28;20810;-68
2022/03/28 00:27:41;;;;;;;0.70;0.20;;;13.70;1.00;;;;;;5052328;28;20447;-66
2022/03/28 00:30:10;;;;;;;0.60;0.10;;;13.70;1.00;;;;;;5052799;28;20479;-67
2022/03/28 00:32:37;;;;;;;0.60;0.20;;;13.60;1.00;;;;;;5052606;28;20445;-67
2022/03/28 00:35:06;;;;;;;0.60;0.10;;;13.60;1.00;;;;;;5048617;28;20502;-67
2022/03/28 00:37:36;;;;;;;0.60;0.10;;;13.60;1.00;;;;;;5037157;28;20919;-67
2022/03/28 00:40:05;;;;;;;0.70;0.40;;;13.60;1.00;;;;;;5037005;28;20780;-67
2022/03/28 00:42:34;;;;;;;0.60;0.10;;;13.60;1.00;;;;;;5050856;28;20442;-68
2022/03/28 00:45:02;;;;;;;0.60;0.20;;;13.60;1.00;;;;;;5052052;28;20522;-67
2022/03/28 00:47:30;;;;;;;0.60;0.13;;;13.60;1.00;;;;;;5052022;28;20950;-67
2022/03/28 00:49:58;;;;;;;0.60;0.20;;;13.60;1.00;;;;;;5051835;28;20471;-67
2022/03/28 00:52:26;;;;;;;0.60;0.10;;;13.50;1.00;;;;;;5052124;28;20629;-67
2022/03/28 00:54:56;;;;;;;0.60;0.10;;;13.50;1.00;;;;;;5052179;28;20479;-67
2022/03/28 00:57:23;;;;;;;0.60;0.10;;;13.40;1.00;;;;;;5052005;28;20906;-66
2022/03/28 00:59:53;;;;;;;0.70;0.67;;;13.40;1.00;;;;;;5051519;28;20865;-67
2022/03/28 01:02:22;;;;;;;0.60;0.10;;;13.40;1.00;;;;;;5035948;28;20447;-67
2022/03/28 01:04:50;;;;;;;0.60;0.10;;;13.40;1.00;;;;;;5049790;28;20513;-68
2022/03/28 01:07:18;;;;;;;0.60;0.10;;;13.30;1.00;;;;;;5033141;28;20799;-67
2022/03/28 01:09:46;;;;;;;0.97;0.50;;;13.30;1.00;;;;;;5032339;28;20502;-67
2022/03/28 01:12:14;;;;;;;0.63;0.40;;;13.30;1.00;;;;;;5035075;28;20456;-67
2022/03/28 01:14:44;;;;;;;0.70;0.40;;;13.20;1.00;;;;;;5039789;28;20472;-68
2022/03/28 01:19:58;;;;;;;0.60;0.10;;;13.20;1.00;;;;;;5032014;28;20898;-68
2022/03/28 01:22:27;;;;;;;1.50;1.40;;;13.10;1.00;;;;;;5048447;28;20450;-68
2022/03/28 01:25:01;;;;;;;0.70;0.57;;;13.10;1.00;;;;;;5052133;28;20465;-66
2022/03/28 01:27:29;;;;;;;0.70;0.40;;;13.10;1.00;;;;;;5050075;28;20545;-67
2022/03/28 01:29:57;;;;;;;0.60;0.20;;;13.00;1.00;;;;;;5031637;28;20480;-67
2022/03/28 01:32:25;;;;;;;0.60;0.10;;;13.00;1.00;;;;;;5048620;28;20525;-68
2022/03/28 01:34:53;;;;;;;0.60;0.10;;;13.00;1.00;;;;;;5049551;28;20551;-66
2022/03/28 01:37:20;;;;;;;0.60;0.10;;;12.90;1.00;;;;;;5049601;28;20530;-66
2022/03/28 01:39:50;;;;;;;5.03;1.50;;;13.00;1.00;;;;;;5051090;28;20447;-66
2022/03/28 01:42:17;;;;;;;0.60;0.10;;;12.90;1.00;;;;;;5034471;28;20448;-67
2022/03/28 01:44:49;;;;;;;0.60;0.10;;;12.90;1.00;;;;;;5033350;28;20855;-68
2022/03/28 01:47:17;;;;;;;0.70;0.50;;;12.80;1.00;;;;;;5051003;28;20448;-66
2022/03/28 01:49:45;;;;;;;0.60;0.20;;;12.70;1.00;;;;;;5050721;28;20478;-67
2022/03/28 01:52:13;;;;;;;0.60;0.10;;;12.70;1.00;;;;;;5035160;28;20547;-69
2022/03/28 01:54:41;;;;;;;0.70;0.30;;;12.80;1.00;;;;;;5031387;28;20937;-66
2022/03/28 01:57:11;;;;;;;0.60;0.30;;;12.70;1.00;;;;;;5031823;28;20822;-68
2022/03/28 01:59:38;;;;;;;0.60;0.10;;;12.70;1.00;;;;;;5031325;28;20495;-67
2022/03/28 02:02:06;;;;;;;0.60;0.10;;;12.70;1.00;;;;;;5044510;28;20459;-67
2022/03/28 02:04:34;;;;;;;0.60;0.10;;;12.70;1.00;;;;;;5045828;28;20804;-66
2022/03/28 02:07:02;;;;;;;0.60;0.10;;;12.70;1.00;;;;;;5049289;28;20792;-66
2022/03/28 02:09:30;;;;;;;0.60;0.10;;;12.70;1.00;;;;;;5049947;28;20783;-66
2022/03/28 02:11:58;;;;;;;0.60;0.20;;;12.60;1.00;;;;;;5038068;28;20506;-67
2022/03/28 02:14:27;;;;;;;0.60;0.10;;;12.50;1.00;;;;;;5031064;28;20488;-66
2022/03/28 02:16:55;;;;;;;1.10;0.60;;;12.40;1.00;;;;;;5049843;28;20453;-67
2022/03/28 02:19:23;;;;;;;1.73;1.07;;;12.40;1.00;;;;;;5050516;28;20444;-66
2022/03/28 02:21:51;;;;;;;4.73;1.07;;;12.30;1.00;;;;;;5038921;28;20451;-67
2022/03/28 02:24:19;;;;;;;0.60;0.10;;;12.30;1.00;;;;;;5031170;28;20558;-67
2022/03/28 02:26:47;;;;;;;3.50;3.30;;;12.30;1.00;;;;;;5048931;28;20444;-67
2022/03/28 02:29:15;;;;;;;2.97;2.13;;;12.30;1.00;;;;;;5035225;28;20467;-67
2022/03/28 02:31:44;;;;;;;2.00;1.80;;;12.20;1.00;;;;;;5041308;28;20479;-67
2022/03/28 02:34:12;;;;;;;0.60;0.10;;;12.20;1.00;;;;;;5048630;28;21022;-66
2022/03/28 02:36:40;;;;;;;0.90;0.90;;;12.20;1.00;;;;;;5051057;28;20443;-66
2022/03/28 02:39:07;;;;;;;0.60;0.10;;;12.20;1.00;;;;;;5050975;28;20449;-67
2022/03/28 02:41:36;;;;;;;0.60;0.10;;;12.20;1.00;;;;;;5045624;28;20448;-67
2022/03/28 02:44:04;;;;;;;1.47;1.37;;;12.10;1.00;;;;;;5053196;28;20477;-67
2022/03/28 02:46:32;;;;;;;0.60;0.10;;;12.10;1.00;;;;;;5049031;28;20448;-68
2022/03/28 02:49:01;;;;;;;0.60;0.20;;;12.10;1.00;;;;;;5034883;28;20478;-68
2022/03/28 02:51:29;;;;;;;1.63;1.03;;;12.10;1.00;;;;;;5042332;28;20482;-66
2022/03/28 02:53:57;;;;;;;0.60;0.10;;;12.00;1.00;;;;;;5054202;28;20447;-68
2022/03/28 02:56:24;;;;;;;0.60;0.20;;;12.00;1.00;;;;;;5054349;28;20442;-67
2022/03/28 02:58:53;;;;;;;0.60;0.10;;;12.00;1.00;;;;;;5043313;28;20452;-67
2022/03/28 03:01:20;;;;;;;0.60;0.10;;;12.00;1.00;;;;;;5048791;28;20521;-67
2022/03/28 03:03:48;;;;;;;0.60;0.10;;;12.00;1.00;;;;;;5047647;28;20455;-67
2022/03/28 03:06:18;;;;;;;0.60;0.10;;;12.00;1.00;;;;;;5034303;28;20458;-68
2022/03/28 03:08:46;;;;;;;0.60;0.10;;;12.00;1.00;;;;;;5034468;28;20448;-67
2022/03/28 03:11:13;;;;;;;0.60;0.10;;;12.00;1.00;;;;;;5035538;28;20581;-66
2022/03/28 03:13:41;;;;;;;0.60;0.10;;;12.20;1.00;;;;;;5041839;28;20446;-67
2022/03/28 03:16:09;;;;;;;0.60;0.10;;;12.20;1.00;;;;;;5045618;28;20898;-66
2022/03/28 03:18:37;;;;;;;0.60;0.10;;;12.20;1.00;;;;;;5046401;28;20466;-68
2022/03/28 03:21:05;;;;;;;0.60;0.10;;;12.30;1.00;;;;;;5042955;28;20558;-67
2022/03/28 03:23:34;;;;;;;0.60;0.10;;;12.30;1.00;;;;;;5033984;28;20447;-65
2022/03/28 03:26:02;;;;;;;0.60;0.10;;;12.30;1.00;;;;;;5041483;28;20467;-67
2022/03/28 03:28:30;;;;;;;0.60;0.10;;;12.30;1.00;;;;;;5034312;28;20930;-67
2022/03/28 03:30:58;;;;;;;0.60;0.10;;;12.30;1.00;;;;;;5043433;28;20479;-68
2022/03/28 03:33:25;;;;;;;0.60;0.10;;;12.30;1.00;;;;;;5053706;28;20455;-66
2022/03/28 03:35:54;;;;;;;0.60;0.10;;;12.30;1.00;;;;;;5051680;28;20471;-67
2022/03/28 03:38:22;;;;;;;0.60;0.10;;;12.20;1.00;;;;;;5053160;28;20469;-67
2022/03/28 03:40:51;;;;;;;0.60;0.10;;;12.10;1.00;;;;;;5044481;28;20479;-66
2022/03/28 03:43:19;;;;;;;0.60;0.10;;;12.10;1.00;;;;;;5033717;28;20477;-66
2022/03/28 03:45:48;;;;;;;0.60;0.10;;;12.00;1.00;;;;;;5033482;28;20468;-67
2022/03/28 03:48:16;;;;;;;0.60;0.10;;;12.00;1.00;;;;;;5037456;28;20492;-68
2022/03/28 03:50:44;;;;;;;0.60;0.10;;;;;;;;;;5045276;28;20497;-66
2022/03/28 03:53:12;;;;;;;0.60;0.10;;;12.00;1.00;;;;;;5033974;28;20451;-66
2022/03/28 03:55:40;;;;;;;0.60;0.20;;;11.90;1.00;;;;;;5033718;28;20473;-66
2022/03/28 03:58:09;;;;;;;0.60;0.10;;;12.00;1.00;;;;;;5033221;28;20448;-67
2022/03/28 04:00:37;;;;;;;0.60;0.10;;;12.00;1.00;;;;;;5034723;28;20450;-67
2022/03/28 04:03:05;;;;;;;0.60;0.10;;;12.00;1.00;;;;;;5040978;28;20941;-67
2022/03/28 04:05:34;;;;;;;0.60;0.10;;;11.90;1.00;;;;;;5045696;22;20496;-70
2022/03/28 04:08:02;;;;;;;0.60;0.10;;;11.90;1.00;;;;;;4997323;28;20877;-70
2022/03/28 04:10:31;;;;;;;0.60;0.10;;;12.00;1.00;;;;;;5000760;28;20469;-71
2022/03/28 04:12:59;;;;;;;0.70;0.53;;;11.90;1.00;;;;;;5002387;28;20446;-70
2022/03/28 04:15:29;;;;;;;0.60;0.10;;;11.90;1.00;;;;;;4991956;28;20467;-71
2022/03/28 04:17:56;;;;;;;1.80;1.70;;;11.80;1.00;;;;;;4979794;28;20438;-71
2022/03/28 04:20:25;;;;;;;0.60;0.10;;;13.90;1.00;;;;;;4976966;28;20490;-71
2022/03/28 04:22:53;;;;;;;1.30;0.70;;;11.70;1.00;;;;;;4977229;28;20535;-71
2022/03/28 04:25:21;;;;;;;1.10;0.93;;;11.70;1.00;;;;;;4975863;28;20463;-71
2022/03/28 04:27:49;;;;;;;1.07;1.07;;;11.60;1.00;;;;;;4976320;28;20470;-71
2022/03/28 04:30:17;;;;;;;0.60;0.10;;;11.60;1.00;;;;;;4976187;28;20481;-71
2022/03/28 04:32:46;;;;;;;0.60;0.10;;;11.60;1.00;;;;;;4971447;28;20472;-71
2022/03/28 04:35:15;;;;;;;1.37;0.77;;;11.50;1.00;;;;;;4981851;28;20615;-70
2022/03/28 04:37:44;;;;;;;0.60;0.10;;;11.50;1.00;;;;;;4982403;28;20502;-69
2022/03/28 04:40:15;;;;;;;0.60;0.10;;;11.50;1.00;;;;;;4983314;28;20492;-70
2022/03/28 04:42:43;;;;;;;0.60;0.10;;;11.50;1.00;;;;;;4983283;28;20537;-71
2022/03/28 04:45:11;;;;;;;0.60;0.10;;;11.50;1.00;;;;;;4980962;28;20477;-68
2022/03/28 04:47:40;;;;;;;0.60;0.10;;;11.50;1.00;;;;;;4994589;28;20457;-68
2022/03/28 04:50:10;;;;;;;0.60;0.10;;;11.40;1.00;;;;;;4983218;28;20469;-69
2022/03/28 04:52:38;;;;;;;0.60;0.10;;;11.30;1.00;;;;;;4984733;28;20492;-70
2022/03/28 04:55:07;;;;;;;3.70;3.50;;;11.30;1.00;;;;;;4981354;28;20484;-71
2022/03/28 04:57:35;;;;;;;0.60;0.10;;;11.30;1.00;;;;;;4972335;28;20450;-71
2022/03/28 05:00:06;;;;;;;0.60;0.10;;;11.30;1.00;;;;;;4976362;28;20445;-71
2022/03/28 05:02:34;;;;;;;0.60;0.10;;;11.30;1.00;;;;;;4967423;28;20536;-69
2022/03/28 05:05:03;;;;;;;0.60;0.10;;;11.30;1.00;;;;;;4981411;28;20490;-70
2022/03/28 05:07:35;;;;;;;0.60;0.10;;;11.30;1.00;;;;;;4975488;28;20570;-71
2022/03/28 05:10:05;;;;;;;0.60;0.10;;;11.30;1.00;;;;;;4976862;28;20593;-69
2022/03/28 05:12:34;;;;;;;0.60;0.10;;;11.40;1.00;;;;;;4975334;28;20482;-73
2022/03/28 05:15:03;;;;;;;0.60;0.10;;;11.40;1.00;;;;;;4974987;28;20569;-70
2022/03/28 05:17:32;;;;;;;0.60;0.10;;;11.40;1.00;;;;;;4963812;28;20572;-70
2022/03/28 05:20:01;;;;;;;0.60;0.20;;;11.50;1.00;;;;;;4967597;28;20461;-69
2022/03/28 05:22:29;;;;;;;0.60;0.10;;;11.50;1.00;;;;;;4976339;28;20455;-69
2022/03/28 05:24:58;;;;;;;0.60;0.10;;;11.60;1.00;;;;;;4972676;28;20550;-69
2022/03/28 05:27:26;;;;;;;0.60;0.30;;;11.60;1.00;;;;;;4973501;28;20438;-71
2022/03/28 05:29:54;;;;;;;0.60;0.10;;;11.60;1.00;;;;;;4973789;28;20561;-71
2022/03/28 05:32:22;;;;;;;0.60;0.10;;;11.60;1.00;;;;;;4989942;28;20849;-70
2022/03/28 05:34:50;;;;;;;0.60;0.10;;;11.60;1.00;;;;;;4971213;28;21053;-68
2022/03/28 05:37:19;;;;;;;0.60;0.10;;;11.60;1.00;;;;;;4971289;28;20565;-69
2022/03/28 05:39:48;;;;;;;0.60;0.10;;;11.60;1.00;;;;;;4973798;28;20462;-70
2022/03/28 05:42:17;;;;;;;0.60;0.10;;;11.60;1.00;;;;;;4973393;28;20457;-70
2022/03/28 05:44:45;;;;;;;0.60;0.10;;;11.70;1.00;;;;;;4967577;28;20466;-68
2022/03/28 05:47:13;;;;;;;0.60;0.10;;;11.70;1.00;;;;;;4971243;28;20546;-69
2022/03/28 05:49:42;;;;;;;0.60;0.10;;;11.70;1.00;;;;;;4971165;28;20454;-68
2022/03/28 05:52:10;;;;;;;0.60;0.10;;;;;;;;;;4982104;28;20510;-69
2022/03/28 05:54:40;;;;;;;0.60;0.10;;;11.70;1.00;;;;;;4982145;28;20557;-68
2022/03/28 05:57:08;;;;;;;0.60;0.10;;;;;;;;;;4971763;28;20454;-70
2022/03/28 05:59:38;;;;;;;122.37;74.53;;;11.80;1.00;;;;;;4966470;28;20470;-69
2022/03/28 06:02:06;;;;;;;0.60;0.10;;;11.80;1.00;;;;;;4975852;28;20497;-69
2022/03/28 06:04:34;;;;;;;0.60;0.10;;;11.80;1.00;;;;;;4973316;28;20941;-69
2022/03/28 06:07:02;;;;;;;0.60;0.10;;;11.70;1.00;;;;;;4980742;28;20458;-70
2022/03/28 06:09:30;;;;;;;0.60;0.10;;;11.70;1.00;;;;;;4982721;28;20940;-69
2022/03/28 06:11:57;;;;;;;0.60;0.10;;;11.70;1.00;;;;;;4982449;28;20505;-70
2022/03/28 06:14:26;;;;;;;0.60;0.10;;;11.80;1.00;;;;;;4973654;28;20454;-70
2022/03/28 06:16:55;;;;;;;0.60;0.10;;;11.80;1.00;;;;;;4973029;28;20467;-68
2022/03/28 06:19:26;;;;;;;0.60;0.10;;;11.80;1.00;;;;;;4976881;28;20458;-67
2022/03/28 06:21:54;;;;;;;0.60;0.10;;;11.70;1.00;;;;;;4977787;28;20454;-73
2022/03/28 06:24:23;;;;;;;0.60;0.10;;;11.70;1.00;;;;;;4975877;28;20442;-73
2022/03/28 06:26:51;;;;;;;0.60;0.10;;;11.70;1.00;;;;;;4977148;28;20445;-72
2022/03/28 06:29:22;;;;;;;0.60;0.10;;;11.70;1.00;;;;;;4976545;28;20446;-72
2022/03/28 06:31:49;;;;;;;1.77;0.93;;;11.90;1.00;;;;;;4985084;28;20476;-72
2022/03/28 06:34:19;;;;;;;0.60;0.10;;;11.90;1.00;;;;;;4987556;28;21001;-73
2022/03/28 06:36:48;;;;;;;0.60;0.10;;;;;;;;;;4978560;28;20460;-71
2022/03/28 06:39:16;;;;;;;0.60;0.10;;;;;;;;;;4977157;28;20481;-72
2022/03/28 06:41:45;;;;;;;0.60;0.50;;;11.90;1.00;;;;;;4979106;28;20829;-71
2022/03/28 06:44:13;;;;;;;0.60;0.10;;;11.80;1.00;;;;;;4977900;28;20451;-73
2022/03/28 06:46:42;;;;;;;0.60;0.10;;;11.90;1.00;;;;;;4979603;28;20458;-71
2022/03/28 06:49:10;;;;;;;0.60;0.10;;;11.90;1.00;;;;;;4979487;28;20454;-72
2022/03/28 06:51:40;;;;;;;0.60;0.20;;;12.00;1.00;;;;;;4981724;28;20455;-72
2022/03/28 06:54:08;;;;;;;0.60;0.10;;;12.00;1.00;;;;;;4978494;28;20456;-72
2022/03/28 06:56:36;;;;;;;0.60;0.10;;;12.00;1.00;;;;;;4981478;28;20994;-72
2022/03/28 06:59:06;;;;;;;0.60;0.10;;;;;;;;;;4976483;28;20454;-73
2022/03/28 07:01:34;;;;;;;0.60;0.10;;;11.90;1.00;;;;;;4977504;28;20834;-73
2022/03/28 07:04:03;;;;;;;0.60;0.10;;;11.90;1.00;;;;;;4980302;28;20453;-70
2022/03/28 07:06:31;;;;;;;0.60;0.10;;;11.90;1.00;;;;;;4975250;28;20500;-72
2022/03/28 07:09:04;;;;;;;5.87;5.53;;;12.00;1.00;;;;;;4978419;28;20435;-71
2022/03/28 07:11:32;;;;;;;0.60;0.10;;;12.00;1.00;;;;;;4974674;28;20990;-71
2022/03/28 07:14:00;;;;;;;0.60;0.10;;;12.00;1.00;;;;;;4975913;28;21000;-72
2022/03/28 07:16:28;;;;;;;0.60;0.10;;;12.10;1.00;;;;;;4975482;28;20462;-71
2022/03/28 07:18:56;;;;;;;0.60;0.10;;;12.10;1.00;;;;;;4971702;28;20465;-72
2022/03/28 07:21:25;;;;;;;0.60;0.10;;;12.10;1.00;;;;;;4975323;28;20458;-72
2022/03/28 07:23:53;;;;;;;0.60;0.10;;;12.20;1.00;;;;;;4977428;28;20877;-72
2022/03/28 07:26:23;;;;;;;0.60;0.10;;;12.30;1.00;;;;;;4979184;28;20517;-72
2022/03/28 07:28:51;;;;;;;0.60;0.10;;;;;;;;;;4993650;28;20461;-71
2022/03/28 07:31:19;;;;;;;0.60;0.10;;;12.40;1.00;;;;;;4981274;28;20545;-72
2022/03/28 07:33:47;;;;;;;0.60;0.10;;;12.40;1.00;;;;;;4975305;28;20474;-71
2022/03/28 07:36:15;;;;;;;0.60;0.10;;;12.40;1.00;;;;;;4976399;28;20512;-72
2022/03/28 07:38:43;;;;;;;0.60;0.10;;;12.40;1.00;;;;;;4975684;28;20449;-72
2022/03/28 07:41:11;;;;;;;0.60;0.10;;;;;;;;;;4975980;28;20439;-72
2022/03/28 07:43:41;;;;;;;0.60;0.10;;;;;;;;;;4975914;28;20456;-71
2022/03/28 07:46:13;;;;;;;0.60;0.10;;;12.60;1.00;;;;;;4967941;28;20496;-70
2022/03/28 07:48:41;;;;;;;0.60;0.10;;;12.70;1.00;;;;;;4973798;28;20967;-71
2022/03/28 07:51:09;;;;;;;0.60;0.13;;;12.70;1.00;;;;;;4973516;28;20450;-70
2022/03/28 07:53:38;;;;;;;0.60;0.10;;;12.80;1.00;;;;;;4974446;28;20490;-71
2022/03/28 07:56:06;;;;;;;0.60;0.10;;;12.90;1.00;;;;;;4979648;28;20473;-72
2022/03/28 07:58:34;;;;;;;0.60;0.10;;;12.90;1.00;;;;;;4978642;28;20499;-70
2022/03/28 08:01:03;;;;;;;0.60;0.10;;;13.00;1.00;;;;;;4995561;28;20508;-70
2022/03/28 08:03:31;;;;;;;0.60;0.17;;;13.00;1.00;;;;;;4995074;28;20448;-71
2022/03/28 08:05:59;;;;;;;0.60;0.10;;;13.20;1.00;;;;;;4975693;28;20479;-71
2022/03/28 08:08:28;;;;;;;0.60;0.10;;;13.20;1.00;;;;;;4992241;28;20454;-71
2022/03/28 08:10:57;;;;;;;0.60;0.10;;;13.30;1.00;;;;;;4981215;28;20889;-71
2022/03/28 08:13:25;;;;;;;0.60;0.10;;;13.30;1.00;;;;;;4971575;28;20522;-73
2022/03/28 08:15:53;;;;;;;0.60;0.10;;;13.40;1.00;;;;;;4975327;28;20481;-70
2022/03/28 08:18:24;;;;;;;0.60;0.10;;;13.40;1.00;;;;;;4973822;28;20535;-71
2022/03/28 08:20:52;;;;;;;0.60;0.10;;;13.50;1.00;;;;;;4981281;28;20462;-72
2022/03/28 08:23:21;;;;;;;0.60;0.10;;;13.50;1.00;;;;;;4975391;28;20981;-71
2022/03/28 08:25:53;;;;;;;0.60;0.10;;;13.60;1.00;;;;;;4978815;28;20475;-68
2022/03/28 08:28:21;;;;;;;0.60;0.10;;;13.70;1.00;;;;;;4972272;28;20463;-70
2022/03/28 08:30:49;;;;;;;0.60;0.10;;;13.70;1.00;;;;;;4979647;28;20476;-70
2022/03/28 08:33:20;;;;;;;0.60;0.10;;;13.80;1.00;;;;;;4974665;28;20514;-69
2022/03/28 08:35:50;;;;;;;0.60;0.10;;;13.90;1.00;;;;;;4978666;28;20483;-69
2022/03/28 08:38:18;;;;;;;0.60;0.10;;;14.00;1.00;;;;;;4971413;28;20451;-70
2022/03/28 08:40:48;;;;;;;0.60;0.10;;;14.10;1.00;;;;;;4979662;28;20538;-68
2022/03/28 08:43:18;;;;;;;0.60;0.10;;;14.10;1.00;;;;;;4976221;28;20480;-70
2022/03/28 08:45:49;;;;;;;0.60;0.10;;;14.20;1.00;;;;;;4975415;28;20485;-67
2022/03/28 08:48:17;;;;;;;0.60;0.10;;;14.20;1.00;;;;;;4977657;28;20489;-70
2022/03/28 08:50:47;;;;;;;0.60;0.10;;;14.30;1.00;;;;;;4977905;28;20810;-69
2022/03/28 08:53:17;;;;;;;0.60;0.10;;;14.30;1.00;;;;;;4973649;28;21051;-69
2022/03/28 08:55:46;;;;;;;0.60;0.10;;;14.40;1.00;;;;;;4974602;28;20480;-70
2022/03/28 08:58:15;;;;;;;0.60;0.10;;;14.40;1.00;;;;;;4974314;28;20553;-71
2022/03/28 09:00:43;;;;;;;0.60;0.20;;;14.60;1.00;;;;;;4978295;28;20553;-69
2022/03/28 09:03:11;;;;;;;0.60;0.10;;;14.70;1.00;;;;;;4972939;28;20455;-70
2022/03/28 09:05:41;;;;;;;0.60;0.10;;;14.70;1.00;;;;;;4975013;28;20504;-69
2022/03/28 09:08:10;;;;;;;0.70;0.40;;;14.80;1.00;;;;;;4971032;28;20451;-69
2022/03/28 09:10:46;;;;;;;0.60;0.10;;;14.80;1.00;;;;;;4974657;28;20478;-70
2022/03/28 09:13:17;;;;;;;0.60;0.10;;;14.90;1.00;;;;;;4973243;28;20492;-72
2022/03/28 09:15:48;;;;;;;0.60;0.10;;;15.00;1.00;;;;;;4974717;28;20465;-70
2022/03/28 09:18:20;;;;;;;0.60;0.10;;;15.10;1.00;;;;;;4978381;28;20446;-70
2022/03/28 09:20:49;;;;;;;0.60;0.10;;;15.10;1.00;;;;;;4973032;28;20457;-69
2022/03/28 09:23:36;;;;;;;0.60;0.10;;;15.20;99.90;;;;;;4972131;28;20443;-71
2022/03/28 09:26:10;;;;;;;0.60;0.10;;;15.30;99.90;;;;;;4972800;28;20462;-69
2022/03/28 09:28:46;;;;;;;0.60;0.10;;;15.40;99.90;;;;;;4974645;28;20456;-69
2022/03/28 09:31:26;;;;;;;1.47;1.37;;;15.50;99.90;;;;;;4963114;28;20453;-71
2022/03/28 09:34:11;;;;;;;0.60;0.10;;;15.50;99.90;;;;;;4989852;28;20512;-69
2022/03/28 09:36:49;;;;;;;0.60;0.10;;;15.60;99.90;;;;;;4967459;28;20475;-70
2022/03/28 09:39:19;;;;;;;0.60;0.40;;;15.80;99.90;;;;;;4977462;28;20452;-71
2022/03/28 09:42:01;;;;;;;0.60;0.10;;;15.80;99.90;;;;;;4978698;28;20459;-70
2022/03/28 09:44:34;;;;;;;0.60;0.10;;;16.00;99.90;;;;;;4976603;28;20456;-69
2022/03/28 09:47:09;;;;;;;0.60;0.10;;;16.10;99.90;;;;;;4974445;28;20481;-70
2022/03/28 09:49:38;;;;;;;0.60;0.10;;;16.20;99.90;;;;;;4969349;28;20480;-70
2022/03/28 09:52:08;;;;;;;0.60;0.10;;;16.20;99.90;;;;;;4976273;28;20537;-70
2022/03/28 09:54:49;;;;;;;0.60;0.17;;;16.40;99.90;;;;;;4984100;28;20526;-70
2022/03/28 09:57:22;;;;;;;0.60;0.20;;;16.40;99.90;;;;;;4964805;28;20537;-70
2022/03/28 09:59:51;;;;;;;0.60;0.20;;;16.60;99.90;;;;;;4974620;28;20877;-67
2022/03/28 10:02:25;;;;;;;0.60;0.10;;;16.60;99.90;;;;;;4973880;28;21004;-70
2022/03/28 10:04:57;;;;;;;0.60;0.10;;;16.90;99.90;;;;;;4979635;28;20551;-69
2022/03/28 10:07:25;;;;;;;0.60;0.10;;;16.90;99.90;;;;;;4972539;28;20448;-70
2022/03/28 10:09:56;;;;;;;0.67;0.37;;;;;;;;;;4969766;28;20464;-72
2022/03/28 10:12:26;;;;;;;0.60;0.10;;;17.20;99.90;;;;;;4969237;28;20463;-69
2022/03/28 10:14:57;;;;;;;0.93;0.70;;;17.30;99.90;;;;;;4977410;28;20519;-70
2022/03/28 10:17:28;;;;;;;0.60;0.10;;;17.40;99.90;;;;;;4973178;28;20489;-71
2022/03/28 10:19:56;;;;;;;0.60;0.30;;;17.50;99.90;;;;;;4975293;28;20457;-70
2022/03/28 10:22:28;;;;;;;0.60;0.10;;;17.50;99.90;;;;;;4973853;28;20466;-70
2022/03/28 10:25:03;;;;;;;0.60;0.10;;;17.70;99.90;;;;;;4972974;28;20472;-70
2022/03/28 10:27:34;;;;;;;0.60;0.10;;;17.70;99.90;;;;;;4972343;28;21071;-68
2022/03/28 10:30:22;;;;;;;1.30;1.03;;;17.90;99.90;;;;;;4969375;28;20472;-71
2022/03/28 10:33:08;;;;;;;0.60;0.20;;;17.90;99.90;;;;;;4975339;28;20451;-71
2022/03/28 10:35:37;;;;;;;0.60;0.20;;;18.00;99.90;;;;;;4977393;28;20909;-70
2022/03/28 10:38:15;;;;;;;0.60;0.20;;;18.00;99.90;;;;;;4979430;28;21227;-71
2022/03/28 10:40:54;;;;;;;0.70;0.40;;;18.30;99.90;;;;;;4975078;28;20477;-70
2022/03/28 10:43:27;;;;;;;0.60;0.10;;;18.30;99.90;;;;;;4971448;28;20865;-71
2022/03/28 10:45:57;;;;;;;0.60;0.10;;;18.30;99.90;;;;;;4974689;28;20457;-71
2022/03/28 10:48:36;;;;;;;0.70;0.50;;;18.40;99.90;;;;;;4974354;28;20472;-71
2022/03/28 10:51:07;;;;;;;0.60;0.20;;;18.50;99.90;;;;;;4973622;28;20466;-71
2022/03/28 10:53:40;;;;;;;0.60;0.10;;;18.60;99.90;;;;;;4973801;28;20460;-71
2022/03/28 10:56:13;;;;;;;0.60;0.20;;;18.60;99.90;;;;;;4973134;28;20465;-71
2022/03/28 10:58:43;;;;;;;0.60;0.20;;;18.70;99.90;;;;;;4973712;28;20854;-72
2022/03/28 11:01:24;;;;;;;0.60;0.10;;;18.70;99.90;;;;;;4973005;28;20455;-71
2022/03/28 11:03:54;;;;;;;0.60;0.20;;;18.90;99.90;;;;;;4972712;28;20462;-70
2022/03/28 11:06:59;;;;;;;0.60;0.20;;;19.00;99.90;;;;;;4974673;28;20622;-71
2022/03/28 11:09:45;;;;;;;1.90;1.80;;;19.00;99.90;;;;;;4976450;28;20818;-71
2022/03/28 11:12:15;;;;;;;0.60;0.10;;;19.10;99.90;;;;;;4975185;28;20473;-71
2022/03/28 11:14:54;;;;;;;1.33;1.23;;;19.20;99.90;;;;;;4976831;28;20491;-70
2022/03/28 11:17:24;;;;;;;0.60;0.10;;;19.20;99.90;;;;;;4973618;28;20560;-71
2022/03/28 11:20:02;;;;;;;0.60;0.10;;;19.40;99.90;;;;;;4976476;28;20449;-72
2022/03/28 11:22:48;;;;;;;0.60;0.10;;;19.40;99.90;;;;;;4974060;28;20472;-72
2022/03/28 11:25:48;;;;;;;0.60;0.20;;;19.50;99.90;;;;;;4980233;28;20481;-71
2022/03/28 11:28:27;;;;;;;6.90;3.50;;;19.40;99.90;;;;;;4975125;28;20444;-72
2022/03/28 11:31:03;;;;;;;0.70;0.20;;;19.40;99.90;;;;;;4975261;28;20974;-75
2022/03/28 11:33:40;;;;;;;0.60;0.30;;;19.40;99.90;;;;;;4980681;28;20477;-71
2022/03/28 11:36:10;;;;;;;1.60;1.13;;;19.50;99.90;;;;;;4978941;28;20485;-72
2022/03/28 11:38:45;;;;;;;0.60;0.20;;;21.40;99.90;;;;;;4978285;28;20445;-72
2022/03/28 11:41:15;;;;;;;0.90;0.20;;;19.50;99.90;;;;;;4976146;28;20445;-71
2022/03/28 11:43:44;;;;;;;3.23;2.73;;;19.80;99.90;;;;;;4988746;28;20627;-72
2022/03/28 11:46:16;;;;;;;0.60;0.10;;;19.80;99.90;;;;;;4968106;28;20560;-71
2022/03/28 11:48:52;;;;;;;0.70;0.30;;;19.80;99.90;;;;;;4968485;28;20492;-72
2022/03/28 11:51:21;;;;;;;0.60;0.13;;;19.90;99.90;;;;;;4975194;28;21023;-70
2022/03/28 11:53:48;;;;;;;4.10;2.00;;;20.00;99.90;;;;;;4974378;28;20892;-71
2022/03/28 11:56:24;;;;;;;0.67;0.17;;;19.90;99.90;;;;;;4975076;28;20516;-70
2022/03/28 11:58:59;;;;;;;1.53;1.13;;;19.90;99.90;;;;;;4976311;28;20932;-72
2022/03/28 12:01:32;;;;;;;2.00;0.70;;;19.90;99.90;;;;;;4969041;28;20483;-72
2022/03/28 12:04:01;;;;;;;2.73;2.53;;;19.90;99.90;;;;;;4977397;28;20456;-71
2022/03/28 12:06:32;;;;;;;0.60;0.20;;;20.00;99.90;;;;;;4975443;28;20535;-71
2022/03/28 12:09:04;;;;;;;0.90;0.50;;;;;;;;;;4974267;28;20557;-72
2022/03/28 12:11:35;;;;;;;0.90;0.60;;;20.10;99.90;;;;;;4975827;28;20450;-71
2022/03/28 12:14:02;;;;;;;7.30;2.50;;;20.10;99.90;;;;;;4975793;28;20459;-71
2022/03/28 12:16:32;;;;;;;1.87;0.70;;;20.00;99.90;;;;;;4970371;28;20496;-72
2022/03/28 12:19:15;;;;;;;1.77;1.00;;;20.00;99.90;;;;;;4972998;28;20834;-71
2022/03/28 12:21:43;;;;;;;0.70;0.40;;;19.90;99.90;;;;;;4969664;28;20811;-70
2022/03/28 12:24:11;;;;;;;6.50;3.63;;;19.90;99.90;;;;;;4991465;28;21050;-71
2022/03/28 12:26:44;;;;;;;0.60;0.20;;;19.90;99.90;;;;;;4969666;28;20498;-71
2022/03/28 12:29:12;;;;;;;0.60;0.17;;;20.00;99.90;;;;;;4956212;28;20976;-71
2022/03/28 12:31:44;;;;;;;0.70;0.40;;;20.00;99.90;;;;;;4956515;28;20449;-70
2022/03/28 12:34:13;;;;;;;0.60;0.10;;;20.20;99.90;;;;;;4987974;28;20643;-72
2022/03/28 12:36:42;;;;;;;0.97;0.77;;;20.20;99.90;;;;;;4995302;28;20564;-71
2022/03/28 12:39:11;;;;;;;5.33;1.97;;;20.50;99.90;;;;;;4997294;28;20476;-71
2022/03/28 12:41:43;;;;;;;1.23;0.97;;;20.50;99.90;;;;;;4999454;28;20476;-72
2022/03/28 12:44:14;;;;;;;0.80;0.50;;;20.50;99.90;;;;;;4982750;28;20823;-71
2022/03/28 12:46:45;;;;;;;0.60;0.20;;;20.60;99.90;;;;;;4978138;28;20994;-72
2022/03/28 12:49:19;;;;;;;0.60;0.20;;;20.70;99.90;;;;;;4982639;28;20460;-73
2022/03/28 12:51:49;;;;;;;3.57;1.17;;;20.80;99.90;;;;;;4987397;28;20456;-72
2022/03/28 12:54:18;;;;;;;1.00;0.60;;;;;;;;;;4997211;28;20459;-72
2022/03/28 12:56:49;;;;;;;0.60;0.20;;;20.60;99.90;;;;;;4983755;28;20492;-72
2022/03/28 12:59:21;;;;;;;0.70;0.30;;;20.80;99.90;;;;;;4972735;28;20454;-72
2022/03/28 13:01:53;;;;;;;15.43;2.20;;;20.80;99.90;;;;;;4973542;28;20964;-74
2022/03/28 13:04:23;;;;;;;0.60;0.20;;;20.80;99.90;;;;;;4977502;28;20441;-72
2022/03/28 13:07:00;;;;;;;0.70;0.20;;;20.80;99.90;;;;;;4979096;28;20465;-73
2022/03/28 13:09:30;;;;;;;0.60;0.10;;;20.80;99.90;;;;;;4957705;28;20514;-72
2022/03/28 13:12:08;;;;;;;0.70;0.23;;;21.00;99.90;;;;;;4965771;28;20453;-72
2022/03/28 13:14:48;;;;;;;0.90;0.50;;;21.20;99.90;;;;;;4970509;28;20498;-72